sensor_id;sensor_type;location;lat;lon;timestamp;temperature;humidity
6098;DHT22;3077;50.922;6.584;2023-12-07T00:00:35;4.00;99.90
6098;DHT22;3077;50.922;6.584;2023-12-07T00:03:01;4.00;99.90
6098;DHT22;3077;50.922;6.584;2023-12-07T00:05:26;3.90;92.20
6098;DHT22;3077;50.922;6.584;2023-12-07T00:07:52;3.90;99.90
6098;DHT22;3077;50.922;6.584;2023-12-07T00:10:17;3.90;65.00
6098;DHT22;3077;50.922;6.584;2023-12-07T00:12:43;3.80;70.60
6098;DHT22;3077;50.922;6.584;2023-12-07T00:15:09;3.80;99.90
6098;DHT22;3077;50.922;6.584;2023-12-07T00:17:34;3.80;99.90
6098;DHT22;3077;50.922;6.584;2023-12-07T00:20:00;3.70;91.80
6098;DHT22;3077;50.922;6.584;2023-12-07T00:22:25;3.70;39.10
6098;DHT22;3077;50.922;6.584;2023-12-07T00:24:52;3.60;8.40
6098;DHT22;3077;50.922;6.584;2023-12-07T00:27:18;3.40;1.00
6098;DHT22;3077;50.922;6.584;2023-12-07T00:29:43;3.40;1.00
6098;DHT22;3077;50.922;6.584;2023-12-07T00:32:09;3.30;1.00
6098;DHT22;3077;50.922;6.584;2023-12-07T00:34:35;3.20;1.00
6098;DHT22;3077;50.922;6.584;2023-12-07T00:37:01;3.20;1.00
6098;DHT22;3077;50.922;6.584;2023-12-07T00:39:26;3.10;1.00
6098;DHT22;3077;50.922;6.584;2023-12-07T00:41:52;3.10;1.00
6098;DHT22;3077;50.922;6.584;2023-12-07T00:44:18;2.90;1.00
6098;DHT22;3077;50.922;6.584;2023-12-07T00:46:44;2.80;1.00
6098;DHT22;3077;50.922;6.584;2023-12-07T00:49:09;2.70;1.00
6098;DHT22;3077;50.922;6.584;2023-12-07T00:51:35;2.70;1.00
6098;DHT22;3077;50.922;6.584;2023-12-07T00:54:01;2.80;15.80
6098;DHT22;3077;50.922;6.584;2023-12-07T00:56:26;2.70;1.00
6098;DHT22;3077;50.922;6.584;2023-12-07T00:58:52;2.80;6.10
6098;DHT22;3077;50.922;6.584;2023-12-07T01:01:18;2.80;11.00
6098;DHT22;3077;50.922;6.584;2023-12-07T01:03:43;2.80;11.00
6098;DHT22;3077;50.922;6.584;2023-12-07T01:06:09;2.70;1.00
6098;DHT22;3077;50.922;6.584;2023-12-07T01:08:37;2.90;42.00
6098;DHT22;3077;50.922;6.584;2023-12-07T01:11:03;2.90;83.30
6098;DHT22;3077;50.922;6.584;2023-12-07T01:13:29;2.90;96.90
6098;DHT22;3077;50.922;6.584;2023-12-07T01:15:56;2.90;79.00
6098;DHT22;3077;50.922;6.584;2023-12-07T01:18:21;2.90;99.00
6098;DHT22;3077;50.922;6.584;2023-12-07T01:20:47;2.90;99.90
6098;DHT22;3077;50.922;6.584;2023-12-07T01:23:14;2.90;99.90
6098;DHT22;3077;50.922;6.584;2023-12-07T01:25:39;3.00;99.90
6098;DHT22;3077;50.922;6.584;2023-12-07T01:28:05;2.80;99.90
6098;DHT22;3077;50.922;6.584;2023-12-07T01:30:31;2.90;99.90
6098;DHT22;3077;50.922;6.584;2023-12-07T01:32:56;2.90;99.90
6098;DHT22;3077;50.922;6.584;2023-12-07T01:35:22;3.00;99.90
6098;DHT22;3077;50.922;6.584;2023-12-07T01:37:48;3.30;99.90
6098;DHT22;3077;50.922;6.584;2023-12-07T01:40:14;3.10;99.90
6098;DHT22;3077;50.922;6.584;2023-12-07T01:42:49;3.20;99.90
6098;DHT22;3077;50.922;6.584;2023-12-07T01:45:15;3.30;99.90
6098;DHT22;3077;50.922;6.584;2023-12-07T01:47:41;3.20;99.90
6098;DHT22;3077;50.922;6.584;2023-12-07T01:50:08;3.20;99.90
6098;DHT22;3077;50.922;6.584;2023-12-07T01:52:38;3.10;99.90
6098;DHT22;3077;50.922;6.584;2023-12-07T01:55:04;3.10;99.90
6098;DHT22;3077;50.922;6.584;2023-12-07T01:57:30;3.10;99.90
6098;DHT22;3077;50.922;6.584;2023-12-07T01:59:56;3.20;99.90
6098;DHT22;3077;50.922;6.584;2023-12-07T02:02:22;3.90;99.90
6098;DHT22;3077;50.922;6.584;2023-12-07T02:04:48;3.20;99.90
6098;DHT22;3077;50.922;6.584;2023-12-07T02:07:14;3.20;99.90
6098;DHT22;3077;50.922;6.584;2023-12-07T02:09:39;3.10;99.90
6098;DHT22;3077;50.922;6.584;2023-12-07T02:12:05;3.10;99.90
6098;DHT22;3077;50.922;6.584;2023-12-07T02:14:31;3.10;99.90
6098;DHT22;3077;50.922;6.584;2023-12-07T02:17:17;3.10;99.90
6098;DHT22;3077;50.922;6.584;2023-12-07T02:22:37;3.00;99.90
6098;DHT22;3077;50.922;6.584;2023-12-07T02:25:08;3.00;99.90
6098;DHT22;3077;50.922;6.584;2023-12-07T02:27:44;3.00;99.90
6098;DHT22;3077;50.922;6.584;2023-12-07T02:30:14;3.10;99.90
6098;DHT22;3077;50.922;6.584;2023-12-07T02:32:41;3.20;99.90
6098;DHT22;3077;50.922;6.584;2023-12-07T02:35:08;3.20;99.90
6098;DHT22;3077;50.922;6.584;2023-12-07T02:37:51;3.20;99.90
6098;DHT22;3077;50.922;6.584;2023-12-07T02:40:21;3.20;99.90
6098;DHT22;3077;50.922;6.584;2023-12-07T02:42:48;3.10;99.90
6098;DHT22;3077;50.922;6.584;2023-12-07T02:45:14;3.10;99.90
6098;DHT22;3077;50.922;6.584;2023-12-07T02:47:40;3.20;99.90
6098;DHT22;3077;50.922;6.584;2023-12-07T02:50:08;3.30;99.90
6098;DHT22;3077;50.922;6.584;2023-12-07T02:52:34;3.30;99.90
6098;DHT22;3077;50.922;6.584;2023-12-07T02:55:00;3.30;99.90
6098;DHT22;3077;50.922;6.584;2023-12-07T02:57:26;3.10;99.90
6098;DHT22;3077;50.922;6.584;2023-12-07T02:59:51;3.00;99.90
6098;DHT22;3077;50.922;6.584;2023-12-07T03:02:17;2.90;99.90
6098;DHT22;3077;50.922;6.584;2023-12-07T03:04:43;2.70;77.80
6098;DHT22;3077;50.922;6.584;2023-12-07T03:07:09;2.60;49.80
6098;DHT22;3077;50.922;6.584;2023-12-07T03:09:35;2.60;41.70
6098;DHT22;3077;50.922;6.584;2023-12-07T03:12:00;2.50;58.80
6098;DHT22;3077;50.922;6.584;2023-12-07T03:14:26;2.40;89.20
6098;DHT22;3077;50.922;6.584;2023-12-07T03:16:51;2.40;99.90
6098;DHT22;3077;50.922;6.584;2023-12-07T03:19:17;2.40;99.90
6098;DHT22;3077;50.922;6.584;2023-12-07T03:21:42;2.30;99.90
6098;DHT22;3077;50.922;6.584;2023-12-07T03:24:09;2.30;99.90
6098;DHT22;3077;50.922;6.584;2023-12-07T03:26:35;2.10;99.90
6098;DHT22;3077;50.922;6.584;2023-12-07T03:29:01;2.00;99.90
6098;DHT22;3077;50.922;6.584;2023-12-07T03:31:27;2.00;99.90
6098;DHT22;3077;50.922;6.584;2023-12-07T03:33:54;1.90;99.90
6098;DHT22;3077;50.922;6.584;2023-12-07T03:36:20;2.00;99.90
6098;DHT22;3077;50.922;6.584;2023-12-07T03:38:45;2.00;99.90
6098;DHT22;3077;50.922;6.584;2023-12-07T03:41:11;1.90;99.90
6098;DHT22;3077;50.922;6.584;2023-12-07T03:43:36;1.90;99.90
6098;DHT22;3077;50.922;6.584;2023-12-07T03:46:06;1.90;99.90
6098;DHT22;3077;50.922;6.584;2023-12-07T03:48:32;1.60;99.90
6098;DHT22;3077;50.922;6.584;2023-12-07T03:50:58;1.80;99.90
6098;DHT22;3077;50.922;6.584;2023-12-07T03:53:23;1.70;99.90
6098;DHT22;3077;50.922;6.584;2023-12-07T03:55:49;1.80;99.90
6098;DHT22;3077;50.922;6.584;2023-12-07T04:00:41;1.80;99.90
6098;DHT22;3077;50.922;6.584;2023-12-07T04:03:07;1.90;99.90
6098;DHT22;3077;50.922;6.584;2023-12-07T04:05:33;1.90;99.90
6098;DHT22;3077;50.922;6.584;2023-12-07T04:07:58;2.10;99.90
6098;DHT22;3077;50.922;6.584;2023-12-07T04:10:24;2.00;99.90
6098;DHT22;3077;50.922;6.584;2023-12-07T04:12:50;2.00;99.90
6098;DHT22;3077;50.922;6.584;2023-12-07T04:15:18;1.90;99.90
6098;DHT22;3077;50.922;6.584;2023-12-07T04:17:43;2.00;99.90
6098;DHT22;3077;50.922;6.584;2023-12-07T04:20:09;1.90;99.90
6098;DHT22;3077;50.922;6.584;2023-12-07T04:22:35;1.90;99.90
6098;DHT22;3077;50.922;6.584;2023-12-07T04:25:00;1.90;99.90
6098;DHT22;3077;50.922;6.584;2023-12-07T04:27:26;1.80;99.90
6098;DHT22;3077;50.922;6.584;2023-12-07T04:29:51;1.60;99.90
6098;DHT22;3077;50.922;6.584;2023-12-07T04:32:17;1.60;99.90
6098;DHT22;3077;50.922;6.584;2023-12-07T04:34:43;1.60;99.90
6098;DHT22;3077;50.922;6.584;2023-12-07T04:37:08;1.60;99.90
6098;DHT22;3077;50.922;6.584;2023-12-07T04:39:35;1.60;99.90
6098;DHT22;3077;50.922;6.584;2023-12-07T04:42:01;1.60;99.90
6098;DHT22;3077;50.922;6.584;2023-12-07T04:44:26;1.60;99.90
6098;DHT22;3077;50.922;6.584;2023-12-07T04:46:52;1.60;99.90
6098;DHT22;3077;50.922;6.584;2023-12-07T04:49:18;1.50;99.90
6098;DHT22;3077;50.922;6.584;2023-12-07T04:51:43;1.60;99.90
6098;DHT22;3077;50.922;6.584;2023-12-07T04:54:15;1.50;99.90
6098;DHT22;3077;50.922;6.584;2023-12-07T04:56:41;1.50;99.90
6098;DHT22;3077;50.922;6.584;2023-12-07T04:59:07;1.50;99.90
6098;DHT22;3077;50.922;6.584;2023-12-07T05:01:37;1.50;99.90
6098;DHT22;3077;50.922;6.584;2023-12-07T05:04:06;1.50;99.90
6098;DHT22;3077;50.922;6.584;2023-12-07T05:06:31;1.60;99.90
6098;DHT22;3077;50.922;6.584;2023-12-07T05:08:57;1.50;99.90
6098;DHT22;3077;50.922;6.584;2023-12-07T05:11:23;1.60;99.90
6098;DHT22;3077;50.922;6.584;2023-12-07T05:13:49;1.50;99.90
6098;DHT22;3077;50.922;6.584;2023-12-07T05:16:14;1.50;99.90
6098;DHT22;3077;50.922;6.584;2023-12-07T05:18:40;1.50;99.90
6098;DHT22;3077;50.922;6.584;2023-12-07T05:21:06;1.50;99.90
6098;DHT22;3077;50.922;6.584;2023-12-07T05:23:32;1.40;89.00
6098;DHT22;3077;50.922;6.584;2023-12-07T05:25:58;1.40;75.30
6098;DHT22;3077;50.922;6.584;2023-12-07T05:28:23;1.40;70.80
6098;DHT22;3077;50.922;6.584;2023-12-07T05:30:49;1.40;75.90
6098;DHT22;3077;50.922;6.584;2023-12-07T05:33:15;1.40;53.90
6098;DHT22;3077;50.922;6.584;2023-12-07T05:35:41;1.30;36.70
6098;DHT22;3077;50.922;6.584;2023-12-07T05:38:06;1.20;18.90
6098;DHT22;3077;50.922;6.584;2023-12-07T05:40:32;1.10;4.70
6098;DHT22;3077;50.922;6.584;2023-12-07T05:42:59;1.10;2.10
6098;DHT22;3077;50.922;6.584;2023-12-07T05:45:24;1.10;10.10
6098;DHT22;3077;50.922;6.584;2023-12-07T05:47:51;1.00;54.50
6098;DHT22;3077;50.922;6.584;2023-12-07T05:50:17;1.10;15.10
6098;DHT22;3077;50.922;6.584;2023-12-07T05:52:42;1.10;28.80
6098;DHT22;3077;50.922;6.584;2023-12-07T05:55:09;1.00;14.70
6098;DHT22;3077;50.922;6.584;2023-12-07T05:57:35;1.00;18.00
6098;DHT22;3077;50.922;6.584;2023-12-07T06:00:00;0.90;23.50
6098;DHT22;3077;50.922;6.584;2023-12-07T06:02:26;0.90;28.00
6098;DHT22;3077;50.922;6.584;2023-12-07T06:04:52;0.80;17.60
6098;DHT22;3077;50.922;6.584;2023-12-07T06:07:17;0.80;26.30
6098;DHT22;3077;50.922;6.584;2023-12-07T06:09:43;0.80;36.60
6098;DHT22;3077;50.922;6.584;2023-12-07T06:12:08;0.80;52.70
6098;DHT22;3077;50.922;6.584;2023-12-07T06:14:34;0.80;49.00
6098;DHT22;3077;50.922;6.584;2023-12-07T06:16:59;0.80;47.50
6098;DHT22;3077;50.922;6.584;2023-12-07T06:19:25;0.80;32.50
6098;DHT22;3077;50.922;6.584;2023-12-07T06:21:51;0.80;26.50
6098;DHT22;3077;50.922;6.584;2023-12-07T06:24:16;0.80;47.20
6098;DHT22;3077;50.922;6.584;2023-12-07T06:26:42;0.70;39.80
6098;DHT22;3077;50.922;6.584;2023-12-07T06:29:08;0.70;36.70
6098;DHT22;3077;50.922;6.584;2023-12-07T06:31:34;0.70;39.90
6098;DHT22;3077;50.922;6.584;2023-12-07T06:33:59;0.70;50.90
6098;DHT22;3077;50.922;6.584;2023-12-07T06:36:26;0.70;55.30
6098;DHT22;3077;50.922;6.584;2023-12-07T06:38:52;0.70;52.90
6098;DHT22;3077;50.922;6.584;2023-12-07T06:41:18;0.60;54.50
6098;DHT22;3077;50.922;6.584;2023-12-07T06:43:44;0.60;93.90
6098;DHT22;3077;50.922;6.584;2023-12-07T06:46:13;0.60;64.00
6098;DHT22;3077;50.922;6.584;2023-12-07T06:48:40;0.60;79.40
6098;DHT22;3077;50.922;6.584;2023-12-07T06:51:06;0.60;50.20
6098;DHT22;3077;50.922;6.584;2023-12-07T06:53:32;0.60;54.00
6098;DHT22;3077;50.922;6.584;2023-12-07T06:55:58;0.60;72.60
6098;DHT22;3077;50.922;6.584;2023-12-07T06:58:24;0.50;50.60
6098;DHT22;3077;50.922;6.584;2023-12-07T07:00:50;0.60;61.80
6098;DHT22;3077;50.922;6.584;2023-12-07T07:03:16;0.60;88.10
6098;DHT22;3077;50.922;6.584;2023-12-07T07:05:42;0.70;99.90
6098;DHT22;3077;50.922;6.584;2023-12-07T07:08:08;0.70;99.90
6098;DHT22;3077;50.922;6.584;2023-12-07T07:10:34;0.70;99.90
6098;DHT22;3077;50.922;6.584;2023-12-07T07:13:02;0.60;99.90
6098;DHT22;3077;50.922;6.584;2023-12-07T07:15:32;0.60;99.90
6098;DHT22;3077;50.922;6.584;2023-12-07T07:17:58;0.50;99.90
6098;DHT22;3077;50.922;6.584;2023-12-07T07:20:26;0.60;99.90
6098;DHT22;3077;50.922;6.584;2023-12-07T07:22:51;0.50;99.90
6098;DHT22;3077;50.922;6.584;2023-12-07T07:25:17;0.50;99.90
6098;DHT22;3077;50.922;6.584;2023-12-07T07:27:45;0.60;99.90
6098;DHT22;3077;50.922;6.584;2023-12-07T07:30:11;0.60;99.90
6098;DHT22;3077;50.922;6.584;2023-12-07T07:32:37;0.50;99.90
6098;DHT22;3077;50.922;6.584;2023-12-07T07:35:03;0.60;99.90
6098;DHT22;3077;50.922;6.584;2023-12-07T07:37:29;0.60;99.90
6098;DHT22;3077;50.922;6.584;2023-12-07T07:39:55;0.70;99.90
6098;DHT22;3077;50.922;6.584;2023-12-07T07:42:20;0.70;99.90
6098;DHT22;3077;50.922;6.584;2023-12-07T07:44:46;0.70;99.90
6098;DHT22;3077;50.922;6.584;2023-12-07T07:47:11;0.70;99.90
6098;DHT22;3077;50.922;6.584;2023-12-07T07:49:37;0.80;99.90
6098;DHT22;3077;50.922;6.584;2023-12-07T07:52:03;0.80;99.90
6098;DHT22;3077;50.922;6.584;2023-12-07T07:54:30;0.90;99.90
6098;DHT22;3077;50.922;6.584;2023-12-07T07:56:56;0.90;99.90
6098;DHT22;3077;50.922;6.584;2023-12-07T07:59:21;0.90;99.90
6098;DHT22;3077;50.922;6.584;2023-12-07T08:01:47;1.00;99.90
6098;DHT22;3077;50.922;6.584;2023-12-07T08:04:13;1.10;99.90
6098;DHT22;3077;50.922;6.584;2023-12-07T08:06:38;1.20;99.90
6098;DHT22;3077;50.922;6.584;2023-12-07T08:09:04;1.20;99.90
6098;DHT22;3077;50.922;6.584;2023-12-07T08:11:30;1.20;99.90
6098;DHT22;3077;50.922;6.584;2023-12-07T08:13:58;1.20;99.90
6098;DHT22;3077;50.922;6.584;2023-12-07T08:16:23;1.30;99.90
6098;DHT22;3077;50.922;6.584;2023-12-07T08:18:49;1.30;99.90
6098;DHT22;3077;50.922;6.584;2023-12-07T08:21:21;1.30;99.90
6098;DHT22;3077;50.922;6.584;2023-12-07T08:23:47;1.40;99.90
6098;DHT22;3077;50.922;6.584;2023-12-07T08:26:13;1.40;99.90
6098;DHT22;3077;50.922;6.584;2023-12-07T08:28:40;1.50;99.90
6098;DHT22;3077;50.922;6.584;2023-12-07T08:31:06;1.50;99.90
6098;DHT22;3077;50.922;6.584;2023-12-07T08:33:32;1.50;99.90
6098;DHT22;3077;50.922;6.584;2023-12-07T08:36:00;1.60;99.90
6098;DHT22;3077;50.922;6.584;2023-12-07T08:38:25;1.60;99.90
6098;DHT22;3077;50.922;6.584;2023-12-07T08:40:52;1.80;99.90
6098;DHT22;3077;50.922;6.584;2023-12-07T08:43:21;2.00;99.90
6098;DHT22;3077;50.922;6.584;2023-12-07T08:45:48;2.00;99.90
6098;DHT22;3077;50.922;6.584;2023-12-07T08:48:14;2.10;99.90
6098;DHT22;3077;50.922;6.584;2023-12-07T08:50:39;2.20;99.90
6098;DHT22;3077;50.922;6.584;2023-12-07T08:53:06;2.30;99.90
6098;DHT22;3077;50.922;6.584;2023-12-07T08:55:32;2.30;99.90
6098;DHT22;3077;50.922;6.584;2023-12-07T08:57:58;2.30;99.90
6098;DHT22;3077;50.922;6.584;2023-12-07T09:00:25;2.30;99.90
6098;DHT22;3077;50.922;6.584;2023-12-07T09:02:51;2.20;85.80
6098;DHT22;3077;50.922;6.584;2023-12-07T09:05:17;2.20;93.40
6098;DHT22;3077;50.922;6.584;2023-12-07T09:07:43;2.20;55.70
6098;DHT22;3077;50.922;6.584;2023-12-07T09:10:10;2.30;59.00
6098;DHT22;3077;50.922;6.584;2023-12-07T09:12:36;2.30;63.50
6098;DHT22;3077;50.922;6.584;2023-12-07T09:15:02;2.30;48.30
6098;DHT22;3077;50.922;6.584;2023-12-07T09:17:28;2.30;55.20
6098;DHT22;3077;50.922;6.584;2023-12-07T09:19:54;2.30;84.20
6098;DHT22;3077;50.922;6.584;2023-12-07T09:22:19;2.40;96.80
6098;DHT22;3077;50.922;6.584;2023-12-07T09:24:45;2.50;99.40
6098;DHT22;3077;50.922;6.584;2023-12-07T09:27:15;2.50;92.30
6098;DHT22;3077;50.922;6.584;2023-12-07T09:29:40;2.50;81.30
6098;DHT22;3077;50.922;6.584;2023-12-07T09:32:07;2.60;67.10
6098;DHT22;3077;50.922;6.584;2023-12-07T09:34:32;2.50;60.30
6098;DHT22;3077;50.922;6.584;2023-12-07T09:37:10;2.60;92.20
6098;DHT22;3077;50.922;6.584;2023-12-07T09:39:36;2.70;94.60
6098;DHT22;3077;50.922;6.584;2023-12-07T09:42:02;2.80;99.90
6098;DHT22;3077;50.922;6.584;2023-12-07T09:44:28;2.80;94.90
6098;DHT22;3077;50.922;6.584;2023-12-07T09:46:54;2.90;89.50
6098;DHT22;3077;50.922;6.584;2023-12-07T09:49:20;3.00;64.30
6098;DHT22;3077;50.922;6.584;2023-12-07T09:51:46;3.00;53.20
6098;DHT22;3077;50.922;6.584;2023-12-07T09:54:12;3.10;41.30
6098;DHT22;3077;50.922;6.584;2023-12-07T09:56:38;3.20;31.50
6098;DHT22;3077;50.922;6.584;2023-12-07T09:59:05;3.20;29.60
6098;DHT22;3077;50.922;6.584;2023-12-07T10:01:32;3.30;9.50
6098;DHT22;3077;50.922;6.584;2023-12-07T10:04:20;3.40;12.50
6098;DHT22;3077;50.922;6.584;2023-12-07T10:06:46;3.40;1.00
6098;DHT22;3077;50.922;6.584;2023-12-07T10:09:13;3.50;2.70
6098;DHT22;3077;50.922;6.584;2023-12-07T10:11:39;3.60;1.00
6098;DHT22;3077;50.922;6.584;2023-12-07T10:14:06;3.70;1.00
6098;DHT22;3077;50.922;6.584;2023-12-07T10:16:33;3.80;1.00
6098;DHT22;3077;50.922;6.584;2023-12-07T10:19:16;3.80;1.00
6098;DHT22;3077;50.922;6.584;2023-12-07T10:21:49;3.90;1.00
6098;DHT22;3077;50.922;6.584;2023-12-07T10:24:16;4.00;1.00
6098;DHT22;3077;50.922;6.584;2023-12-07T10:26:43;4.00;1.00
6098;DHT22;3077;50.922;6.584;2023-12-07T10:29:09;4.10;1.00
6098;DHT22;3077;50.922;6.584;2023-12-07T10:31:36;4.10;1.00
6098;DHT22;3077;50.922;6.584;2023-12-07T10:34:02;4.20;1.00
6098;DHT22;3077;50.922;6.584;2023-12-07T10:36:28;4.20;1.00
6098;DHT22;3077;50.922;6.584;2023-12-07T10:38:54;4.20;99.90
6098;DHT22;3077;50.922;6.584;2023-12-07T10:41:21;4.30;99.90
6098;DHT22;3077;50.922;6.584;2023-12-07T10:44:04;4.40;99.90
6098;DHT22;3077;50.922;6.584;2023-12-07T10:46:33;4.50;99.90
6098;DHT22;3077;50.922;6.584;2023-12-07T10:49:04;4.60;99.90
6098;DHT22;3077;50.922;6.584;2023-12-07T10:51:45;4.60;99.90
6098;DHT22;3077;50.922;6.584;2023-12-07T10:54:15;4.70;99.90
6098;DHT22;3077;50.922;6.584;2023-12-07T10:56:45;4.70;1.00
6098;DHT22;3077;50.922;6.584;2023-12-07T10:59:11;4.70;99.90
6098;DHT22;3077;50.922;6.584;2023-12-07T11:01:41;4.80;99.90
6098;DHT22;3077;50.922;6.584;2023-12-07T11:04:11;4.90;99.90
6098;DHT22;3077;50.922;6.584;2023-12-07T11:06:42;4.90;99.90
6098;DHT22;3077;50.922;6.584;2023-12-07T11:09:22;5.00;1.00
6098;DHT22;3077;50.922;6.584;2023-12-07T11:11:55;5.30;99.90
6098;DHT22;3077;50.922;6.584;2023-12-07T11:14:22;5.60;99.90
6098;DHT22;3077;50.922;6.584;2023-12-07T11:16:48;5.80;99.90
6098;DHT22;3077;50.922;6.584;2023-12-07T11:22:01;6.80;1.00
6098;DHT22;3077;50.922;6.584;2023-12-07T11:24:27;7.20;1.00
6098;DHT22;3077;50.922;6.584;2023-12-07T11:26:53;7.40;1.00
6098;DHT22;3077;50.922;6.584;2023-12-07T11:29:20;7.70;99.90
6098;DHT22;3077;50.922;6.584;2023-12-07T11:31:46;7.90;1.00
6098;DHT22;3077;50.922;6.584;2023-12-07T11:34:13;8.10;99.90
6098;DHT22;3077;50.922;6.584;2023-12-07T11:36:39;7.80;11.90
6098;DHT22;3077;50.922;6.584;2023-12-07T11:41:35;8.40;99.90
6098;DHT22;3077;50.922;6.584;2023-12-07T11:44:05;8.80;15.20
6098;DHT22;3077;50.922;6.584;2023-12-07T11:46:30;8.90;99.90
6098;DHT22;3077;50.922;6.584;2023-12-07T11:48:57;9.30;99.90
6098;DHT22;3077;50.922;6.584;2023-12-07T11:51:24;9.20;1.00
6098;DHT22;3077;50.922;6.584;2023-12-07T11:53:49;9.40;62.80
6098;DHT22;3077;50.922;6.584;2023-12-07T11:56:16;9.40;61.10
6098;DHT22;3077;50.922;6.584;2023-12-07T11:58:46;9.50;58.20
6098;DHT22;3077;50.922;6.584;2023-12-07T12:01:12;9.70;61.80
6098;DHT22;3077;50.922;6.584;2023-12-07T12:03:37;9.40;55.70
6098;DHT22;3077;50.922;6.584;2023-12-07T12:06:07;9.90;56.10
6098;DHT22;3077;50.922;6.584;2023-12-07T12:08:35;9.60;53.20
6098;DHT22;3077;50.922;6.584;2023-12-07T12:11:01;9.40;56.70
6098;DHT22;3077;50.922;6.584;2023-12-07T12:13:28;9.30;52.70
6098;DHT22;3077;50.922;6.584;2023-12-07T12:15:55;9.30;55.80
6098;DHT22;3077;50.922;6.584;2023-12-07T12:18:21;9.40;55.80
6098;DHT22;3077;50.922;6.584;2023-12-07T12:20:47;9.40;50.10
6098;DHT22;3077;50.922;6.584;2023-12-07T12:23:12;9.40;54.30
6098;DHT22;3077;50.922;6.584;2023-12-07T12:25:38;9.60;52.50
6098;DHT22;3077;50.922;6.584;2023-12-07T12:28:05;9.90;72.50
6098;DHT22;3077;50.922;6.584;2023-12-07T12:30:32;10.00;49.80
6098;DHT22;3077;50.922;6.584;2023-12-07T12:32:59;10.10;44.20
6098;DHT22;3077;50.922;6.584;2023-12-07T12:35:28;9.60;43.20
6098;DHT22;3077;50.922;6.584;2023-12-07T12:37:54;9.90;63.90
6098;DHT22;3077;50.922;6.584;2023-12-07T12:40:21;10.10;43.50
6098;DHT22;3077;50.922;6.584;2023-12-07T12:42:52;10.20;41.60
6098;DHT22;3077;50.922;6.584;2023-12-07T12:45:18;10.10;38.40
6098;DHT22;3077;50.922;6.584;2023-12-07T12:47:45;9.80;41.00
6098;DHT22;3077;50.922;6.584;2023-12-07T12:50:12;9.60;41.20
6098;DHT22;3077;50.922;6.584;2023-12-07T12:52:58;9.50;45.10
6098;DHT22;3077;50.922;6.584;2023-12-07T12:55:26;9.70;45.10
6098;DHT22;3077;50.922;6.584;2023-12-07T12:57:51;9.20;64.00
6098;DHT22;3077;50.922;6.584;2023-12-07T13:00:17;9.20;45.90
6098;DHT22;3077;50.922;6.584;2023-12-07T13:02:43;9.50;48.10
6098;DHT22;3077;50.922;6.584;2023-12-07T13:05:08;9.50;45.10
6098;DHT22;3077;50.922;6.584;2023-12-07T13:07:34;9.40;45.60
6098;DHT22;3077;50.922;6.584;2023-12-07T13:10:01;9.60;45.10
6098;DHT22;3077;50.922;6.584;2023-12-07T13:12:26;9.30;45.40
6098;DHT22;3077;50.922;6.584;2023-12-07T13:14:54;9.20;47.50
6098;DHT22;3077;50.922;6.584;2023-12-07T13:17:20;9.10;48.50
6098;DHT22;3077;50.922;6.584;2023-12-07T13:19:45;9.50;51.40
6098;DHT22;3077;50.922;6.584;2023-12-07T13:22:11;10.00;49.40
6098;DHT22;3077;50.922;6.584;2023-12-07T13:24:36;10.50;43.10
6098;DHT22;3077;50.922;6.584;2023-12-07T13:27:02;10.80;34.40
6098;DHT22;3077;50.922;6.584;2023-12-07T13:29:28;11.00;32.00
6098;DHT22;3077;50.922;6.584;2023-12-07T13:31:53;10.70;26.60
6098;DHT22;3077;50.922;6.584;2023-12-07T13:34:19;10.60;27.80
6098;DHT22;3077;50.922;6.584;2023-12-07T13:36:46;10.50;30.10
6098;DHT22;3077;50.922;6.584;2023-12-07T13:39:12;10.40;32.50
6098;DHT22;3077;50.922;6.584;2023-12-07T13:41:38;10.20;34.30
6098;DHT22;3077;50.922;6.584;2023-12-07T13:44:04;9.90;36.50
6098;DHT22;3077;50.922;6.584;2023-12-07T13:46:30;9.50;42.20
6098;DHT22;3077;50.922;6.584;2023-12-07T13:48:56;9.30;46.20
6098;DHT22;3077;50.922;6.584;2023-12-07T13:51:22;8.90;50.80
6098;DHT22;3077;50.922;6.584;2023-12-07T13:53:48;8.40;54.50
6098;DHT22;3077;50.922;6.584;2023-12-07T13:56:15;8.10;62.50
6098;DHT22;3077;50.922;6.584;2023-12-07T13:58:40;8.00;69.10
6098;DHT22;3077;50.922;6.584;2023-12-07T14:01:06;7.70;72.80
6098;DHT22;3077;50.922;6.584;2023-12-07T14:03:32;7.50;78.80
6098;DHT22;3077;50.922;6.584;2023-12-07T14:05:58;7.20;84.10
6098;DHT22;3077;50.922;6.584;2023-12-07T14:08:23;7.00;91.10
6098;DHT22;3077;50.922;6.584;2023-12-07T14:10:51;6.60;95.70
6098;DHT22;3077;50.922;6.584;2023-12-07T14:13:17;6.30;99.70
6098;DHT22;3077;50.922;6.584;2023-12-07T14:15:43;6.10;99.90
6098;DHT22;3077;50.922;6.584;2023-12-07T14:18:08;5.90;99.90
6098;DHT22;3077;50.922;6.584;2023-12-07T14:20:34;6.00;99.90
6098;DHT22;3077;50.922;6.584;2023-12-07T14:22:59;6.00;99.90
6098;DHT22;3077;50.922;6.584;2023-12-07T14:25:30;5.90;99.90
6098;DHT22;3077;50.922;6.584;2023-12-07T14:27:56;5.60;99.90
6098;DHT22;3077;50.922;6.584;2023-12-07T14:30:21;5.70;99.90
6098;DHT22;3077;50.922;6.584;2023-12-07T14:32:48;5.60;99.90
6098;DHT22;3077;50.922;6.584;2023-12-07T14:35:18;5.50;99.90
6098;DHT22;3077;50.922;6.584;2023-12-07T14:37:43;5.40;99.90
6098;DHT22;3077;50.922;6.584;2023-12-07T14:40:09;5.40;99.90
6098;DHT22;3077;50.922;6.584;2023-12-07T14:42:35;5.30;99.90
6098;DHT22;3077;50.922;6.584;2023-12-07T14:45:02;5.30;99.90
6098;DHT22;3077;50.922;6.584;2023-12-07T14:47:28;5.30;99.90
6098;DHT22;3077;50.922;6.584;2023-12-07T14:49:53;5.20;99.90
6098;DHT22;3077;50.922;6.584;2023-12-07T14:52:19;5.20;99.90
6098;DHT22;3077;50.922;6.584;2023-12-07T14:54:44;5.10;99.90
6098;DHT22;3077;50.922;6.584;2023-12-07T14:57:10;5.10;99.90
6098;DHT22;3077;50.922;6.584;2023-12-07T14:59:35;5.10;99.90
6098;DHT22;3077;50.922;6.584;2023-12-07T15:02:01;5.10;99.90
6098;DHT22;3077;50.922;6.584;2023-12-07T15:04:27;4.90;99.90
6098;DHT22;3077;50.922;6.584;2023-12-07T15:06:53;4.70;99.90
6098;DHT22;3077;50.922;6.584;2023-12-07T15:09:20;4.60;99.90
6098;DHT22;3077;50.922;6.584;2023-12-07T15:11:46;4.50;99.90
6098;DHT22;3077;50.922;6.584;2023-12-07T15:14:12;4.40;99.90
6098;DHT22;3077;50.922;6.584;2023-12-07T15:16:38;4.40;99.90
6098;DHT22;3077;50.922;6.584;2023-12-07T15:19:04;4.40;99.90
6098;DHT22;3077;50.922;6.584;2023-12-07T15:21:30;4.30;99.90
6098;DHT22;3077;50.922;6.584;2023-12-07T15:23:56;4.10;99.90
6098;DHT22;3077;50.922;6.584;2023-12-07T15:26:21;4.00;99.90
6098;DHT22;3077;50.922;6.584;2023-12-07T15:28:47;3.90;99.90
6098;DHT22;3077;50.922;6.584;2023-12-07T15:31:12;3.80;99.90
6098;DHT22;3077;50.922;6.584;2023-12-07T15:33:38;3.80;99.90
6098;DHT22;3077;50.922;6.584;2023-12-07T15:36:04;3.70;99.90
6098;DHT22;3077;50.922;6.584;2023-12-07T15:38:30;3.70;99.90
6098;DHT22;3077;50.922;6.584;2023-12-07T15:40:57;3.70;99.90
6098;DHT22;3077;50.922;6.584;2023-12-07T15:43:24;3.70;99.90
6098;DHT22;3077;50.922;6.584;2023-12-07T15:45:50;3.70;99.90
6098;DHT22;3077;50.922;6.584;2023-12-07T15:48:16;3.70;99.90
6098;DHT22;3077;50.922;6.584;2023-12-07T15:50:42;3.60;99.90
6098;DHT22;3077;50.922;6.584;2023-12-07T15:53:08;3.60;99.90
6098;DHT22;3077;50.922;6.584;2023-12-07T15:55:33;3.60;99.90
6098;DHT22;3077;50.922;6.584;2023-12-07T15:57:59;3.40;99.90
6098;DHT22;3077;50.922;6.584;2023-12-07T16:00:24;3.60;99.90
6098;DHT22;3077;50.922;6.584;2023-12-07T16:02:50;3.50;99.90
6098;DHT22;3077;50.922;6.584;2023-12-07T16:05:18;3.50;99.90
6098;DHT22;3077;50.922;6.584;2023-12-07T16:07:44;3.50;99.90
6098;DHT22;3077;50.922;6.584;2023-12-07T16:10:09;3.50;99.90
6098;DHT22;3077;50.922;6.584;2023-12-07T16:12:35;3.40;99.90
6098;DHT22;3077;50.922;6.584;2023-12-07T16:15:02;3.50;99.90
6098;DHT22;3077;50.922;6.584;2023-12-07T16:17:27;3.50;99.90
6098;DHT22;3077;50.922;6.584;2023-12-07T16:19:54;3.50;99.90
6098;DHT22;3077;50.922;6.584;2023-12-07T16:22:20;3.40;99.90
6098;DHT22;3077;50.922;6.584;2023-12-07T16:24:45;3.40;99.90